Ault Field, Washington
Current Conditions -  °F | °C
As of 4:13 PM on Sunday 25 Jan 2015 (Local Time) from KNUW Reporting Station
Haze Haze  
Wind Chill: 51°   Ceiling: 900
Heat Index: 51°   Visibility: 0.75mi
Dew Point: 48°   Wind: 0mph
Humidity: 89%   Direction: NA
Pressure: 30.1"   Gusts: NA
Location:  48.3182°N, 122.634°W
Report Text: KNUW 260013Z 00000KT 3/4SM BR SCT002 OVC009 11/09 A3010 RMK AO2 TWR VIS 1 1/2 T01060089 VISNO E $
Loading
Personal Weather Stations






























Interactive Weather Map New forecast layout! Learn more

10-Day Weather Forecast

Advertisements
Track Severe Weather on mobile